Flight Track Log - Related Links

Times and Time Zones

All times are in EDT time to prevent confusion due to time zone crossing. See the FSR411 flight status page for this flight to view local times or setup timezone preferences in your user account.

Time Position Orientation Groundspeed Altitude Reporting Facility
EDT Latitude Longitude Course Direction KTS MPH feet Rate Location/Type
Thu 03:08:43 PM 42.3933 -82.9956 220° Southwest 170 196 1,500  Level Cleveland Center
Thu 03:09:31 PM 42.3606 -82.9547 137° Southeast 221 254 2,900 1,689 Climbing Cleveland Center
Thu 03:10:26 PM 42.2964 -82.9411 171° South 261 300 4,400 1,920 Climbing Cleveland Center
Thu 03:10:46 PM 42.2736 -82.9292 159° South 255 293 5,300 3,225 Climbing Cleveland Center
Thu 03:11:46 PM 42.2144 -82.8681 143° Southeast 292 336 8,700 2,800 Climbing Cleveland Center
Thu 03:12:46 PM 42.1372 -82.8736 183° South 279 321 10,900 1,850 Climbing Cleveland Center
Thu 03:13:46 PM 42.0586 -82.9408 212° Southwest 299 344 12,400 2,300 Climbing Cleveland Center
Thu 03:14:00 PM 41.9860 -83.4617 220° Southwest  Level FlightAware Approximate
Thu 03:14:46 PM 41.9919 -83.0444 229° Southwest 320 368 15,500  Level Cleveland Center
Thu 03:15:46 PM 41.9275 -83.1342 226° Southwest 345 397 18,500 3,050 Climbing Cleveland Center
Thu 03:16:46 PM 41.8542 -83.2428 228° Southwest 383 441 21,600 2,750 Climbing Cleveland Center
Thu 03:17:46 PM 41.7783 -83.3567 228° Southwest 400 460 24,000 2,250 Climbing Cleveland Center
Thu 03:18:46 PM 41.6983 -83.4756 228° Southwest 418 481 26,100 2,100 Climbing Cleveland Center
Thu 03:19:46 PM 41.6444 -83.6175 243° Southwest 428 493 28,200 1,700 Climbing Cleveland Center
Thu 03:20:46 PM 41.6011 -83.7628 248° West 428 493 29,500 900 Climbing Cleveland Center
Thu 03:21:46 PM 41.5553 -83.9075 247° West 428 493 30,000 250 Climbing Cleveland Center
Thu 03:22:46 PM 41.5092 -84.0522 247° West 428 493 30,000  Level Cleveland Center
Thu 03:23:46 PM 41.4631 -84.1967 247° West 428 493 30,000  Level Cleveland Center
Thu 03:24:46 PM 41.4164 -84.3519 248° West 428 493 30,000  Level Cleveland Center
Thu 03:25:58 PM 41.3603 -84.5253 247° West 420 483 30,000  Level Chicago Center
Thu 03:27:00 PM 41.3469 -84.6728 263° West 404 465 30,000  Level Chicago Center
Thu 03:28:02 PM 41.3342 -84.8236 264° West 406 467 30,000  Level Chicago Center
Thu 03:29:04 PM 41.3547 -84.9700 281° West 402 463 30,000  Level Chicago Center
Thu 03:30:06 PM 41.3733 -85.1183 280° West 404 465 30,000  Level Chicago Center
Thu 03:31:08 PM 41.3542 -85.2628 260° West 399 459 30,000  Level Chicago Center
Thu 03:32:10 PM 41.2981 -85.3964 241° Southwest 409 471 30,000  Level Chicago Center
Thu 03:33:13 PM 41.2319 -85.5569 241° Southwest 409 471 30,000  Level Chicago Center
Thu 03:34:15 PM 41.1758 -85.6875 240° Southwest 405 466 30,000  Level Chicago Center
Thu 03:35:17 PM 41.1242 -85.8211 243° Southwest 406 467 30,000  Level Chicago Center
Thu 03:36:19 PM 41.0831 -85.9600 249° West 404 465 30,000 -484 Level Chicago Center
Thu 03:37:21 PM 41.0411 -86.0956 248° West 401 461 29,000 -1,452 Descending Chicago Center
Thu 03:38:23 PM 40.9969 -86.2225 245° Southwest 387 445 27,000 -1,984 Descending Chicago Center
Thu 03:39:25 PM 40.9289 -86.3650 238° Southwest 384 442 24,900 -1,452 Descending Chicago Center
Thu 03:40:27 PM 40.8731 -86.4867 239° Southwest 386 444 24,000 -435 Descending Chicago Center
Thu 03:41:29 PM 40.8169 -86.6111 239° Southwest 392 451 24,000 -726 Level Chicago Center
Thu 03:42:31 PM 40.7589 -86.7375 239° Southwest 401 461 22,500 -1,984 Descending Chicago Center
Thu 03:43:33 PM 40.6986 -86.8708 239° Southwest 392 451 19,900 -2,304 Descending Chicago Center
Thu 03:44:36 PM 40.6439 -86.9914 239° Southwest 387 445 17,700 -2,304 Descending Chicago Center
Thu 03:45:38 PM 40.5858 -87.1167 239° Southwest 371 427 15,100 -2,323 Descending Chicago Center
Thu 03:46:40 PM 40.5347 -87.2275 239° Southwest 358 412 12,900 -1,597 Descending Chicago Center
Thu 03:47:42 PM 40.4892 -87.3261 239° Southwest 326 375 11,800 -919 Descending Chicago Center
Thu 03:48:44 PM 40.4406 -87.4294 238° Southwest 309 356 11,000 -484 Descending Chicago Center
Thu 03:49:46 PM 40.3994 -87.5186 239° Southwest 313 360 10,800 -1,306 Descending Chicago Center
Thu 03:50:48 PM 40.3547 -87.6250 241° Southwest 283 326 8,300 -2,323 Descending Chicago Center
Thu 03:51:50 PM 40.3250 -87.7111 246° West 262 302 6,000 -2,274 Descending Chicago Center
Thu 03:52:52 PM 40.2961 -87.7961 246° West 258 297 3,600 -1,452 Descending Chicago Center
Thu 03:53:54 PM 40.2678 -87.8764 245° Southwest 253 291 3,000 -339 Descending Chicago Center
Thu 03:54:56 PM 40.2408 -87.9525 245° Southwest 245 282 2,900 -48 Descending Chicago Center
Thu 03:55:59 PM 40.2194 -88.0164 246° West 225 259 2,900  Level Chicago Center
Thu 03:57:00 PM 40.1552 -88.1096 246° West  Level Estimated
Thu 04:04:00 PM 40.0333 -88.2667 246° West  Level FlightAware Approximate
Thu 04:05:00 PM 40.0388 -88.2778 246° West  Level Estimated
Thu 04:06:00 PM 40.0388 -88.2778 246° West  Level Estimated
Thu 04:07:00 PM 40.0388 -88.2778 246° West  Level Estimated
Thu 04:08:00 PM 40.0388 -88.2778 246° West  Level Estimated
Thu 04:09:00 PM 40.0388 -88.2778 246° West  Level Estimated
Thu 04:10:00 PM 40.0388 -88.2778 246° West  Level Estimated

Login

Don't have an account? Register now (free) for customized features, flight alerts, and more!